sensor_id;sensor_type;location;lat;lon;timestamp;P1;durP1;ratioP1;P2;durP2;ratioP2
5452;SDS011;2749;53.576;9.822;2023-05-07T00:00:20;13.50;;;10.00;;
5452;SDS011;2749;53.576;9.822;2023-05-07T00:02:47;12.13;;;10.80;;
5452;SDS011;2749;53.576;9.822;2023-05-07T00:05:13;14.30;;;10.40;;
5452;SDS011;2749;53.576;9.822;2023-05-07T00:07:39;12.37;;;11.07;;
5452;SDS011;2749;53.576;9.822;2023-05-07T00:10:05;15.13;;;11.80;;
5452;SDS011;2749;53.576;9.822;2023-05-07T00:12:32;12.63;;;10.50;;
5452;SDS011;2749;53.576;9.822;2023-05-07T00:15:04;14.60;;;12.43;;
5452;SDS011;2749;53.576;9.822;2023-05-07T00:17:30;15.10;;;13.50;;
5452;SDS011;2749;53.576;9.822;2023-05-07T00:19:56;14.23;;;12.53;;
5452;SDS011;2749;53.576;9.822;2023-05-07T00:22:22;15.10;;;12.57;;
5452;SDS011;2749;53.576;9.822;2023-05-07T00:24:48;14.83;;;13.23;;
5452;SDS011;2749;53.576;9.822;2023-05-07T00:27:14;13.63;;;10.60;;
5452;SDS011;2749;53.576;9.822;2023-05-07T00:29:40;13.27;;;11.87;;
5452;SDS011;2749;53.576;9.822;2023-05-07T00:32:05;13.63;;;12.10;;
5452;SDS011;2749;53.576;9.822;2023-05-07T00:34:31;16.23;;;13.20;;
5452;SDS011;2749;53.576;9.822;2023-05-07T00:36:57;13.03;;;11.03;;
5452;SDS011;2749;53.576;9.822;2023-05-07T00:39:23;14.17;;;10.53;;
5452;SDS011;2749;53.576;9.822;2023-05-07T00:41:49;16.10;;;11.00;;
5452;SDS011;2749;53.576;9.822;2023-05-07T00:44:16;12.60;;;11.20;;
5452;SDS011;2749;53.576;9.822;2023-05-07T00:46:43;11.47;;;9.37;;
5452;SDS011;2749;53.576;9.822;2023-05-07T00:49:09;13.40;;;10.07;;
5452;SDS011;2749;53.576;9.822;2023-05-07T00:51:35;12.47;;;11.17;;
5452;SDS011;2749;53.576;9.822;2023-05-07T00:54:02;11.70;;;9.90;;
5452;SDS011;2749;53.576;9.822;2023-05-07T00:56:28;14.00;;;10.07;;
5452;SDS011;2749;53.576;9.822;2023-05-07T00:58:54;11.07;;;9.70;;
5452;SDS011;2749;53.576;9.822;2023-05-07T01:01:20;9.67;;;8.63;;
5452;SDS011;2749;53.576;9.822;2023-05-07T01:03:46;9.20;;;7.67;;
5452;SDS011;2749;53.576;9.822;2023-05-07T01:06:12;10.30;;;9.17;;
5452;SDS011;2749;53.576;9.822;2023-05-07T01:08:41;13.40;;;8.70;;
5452;SDS011;2749;53.576;9.822;2023-05-07T01:11:07;8.90;;;8.00;;
5452;SDS011;2749;53.576;9.822;2023-05-07T01:13:34;9.70;;;8.70;;
5452;SDS011;2749;53.576;9.822;2023-05-07T01:16:00;9.93;;;8.90;;
5452;SDS011;2749;53.576;9.822;2023-05-07T01:18:26;9.27;;;7.77;;
5452;SDS011;2749;53.576;9.822;2023-05-07T01:20:54;10.53;;;8.77;;
5452;SDS011;2749;53.576;9.822;2023-05-07T01:23:21;10.93;;;8.03;;
5452;SDS011;2749;53.576;9.822;2023-05-07T01:25:51;14.40;;;7.90;;
5452;SDS011;2749;53.576;9.822;2023-05-07T01:28:17;10.43;;;7.90;;
5452;SDS011;2749;53.576;9.822;2023-05-07T01:30:44;9.10;;;8.20;;
5452;SDS011;2749;53.576;9.822;2023-05-07T01:33:13;11.47;;;9.33;;
5452;SDS011;2749;53.576;9.822;2023-05-07T01:35:42;10.07;;;8.63;;
5452;SDS011;2749;53.576;9.822;2023-05-07T01:38:09;10.03;;;9.03;;
5452;SDS011;2749;53.576;9.822;2023-05-07T01:40:35;10.10;;;9.10;;
5452;SDS011;2749;53.576;9.822;2023-05-07T01:43:02;9.43;;;8.53;;
5452;SDS011;2749;53.576;9.822;2023-05-07T01:45:28;11.37;;;8.70;;
5452;SDS011;2749;53.576;9.822;2023-05-07T01:47:55;9.83;;;8.83;;
5452;SDS011;2749;53.576;9.822;2023-05-07T01:50:22;8.47;;;7.67;;
5452;SDS011;2749;53.576;9.822;2023-05-07T01:52:49;11.17;;;8.03;;
5452;SDS011;2749;53.576;9.822;2023-05-07T01:55:16;9.93;;;8.40;;
5452;SDS011;2749;53.576;9.822;2023-05-07T01:57:41;7.90;;;7.10;;
5452;SDS011;2749;53.576;9.822;2023-05-07T02:00:08;8.37;;;7.50;;
5452;SDS011;2749;53.576;9.822;2023-05-07T02:02:34;7.77;;;6.87;;
5452;SDS011;2749;53.576;9.822;2023-05-07T02:05:00;8.87;;;7.80;;
5452;SDS011;2749;53.576;9.822;2023-05-07T02:07:26;8.10;;;7.30;;
5452;SDS011;2749;53.576;9.822;2023-05-07T02:09:52;9.27;;;8.37;;
5452;SDS011;2749;53.576;9.822;2023-05-07T02:12:20;6.63;;;6.03;;
5452;SDS011;2749;53.576;9.822;2023-05-07T02:14:46;8.60;;;7.70;;
5452;SDS011;2749;53.576;9.822;2023-05-07T02:17:12;13.33;;;9.13;;
5452;SDS011;2749;53.576;9.822;2023-05-07T02:19:38;9.30;;;7.80;;
5452;SDS011;2749;53.576;9.822;2023-05-07T02:22:04;8.10;;;7.40;;
5452;SDS011;2749;53.576;9.822;2023-05-07T02:24:30;6.80;;;6.10;;
5452;SDS011;2749;53.576;9.822;2023-05-07T02:26:56;7.90;;;7.10;;
5452;SDS011;2749;53.576;9.822;2023-05-07T02:29:21;8.63;;;7.33;;
5452;SDS011;2749;53.576;9.822;2023-05-07T02:31:47;8.20;;;7.40;;
5452;SDS011;2749;53.576;9.822;2023-05-07T02:34:15;9.80;;;8.57;;
5452;SDS011;2749;53.576;9.822;2023-05-07T02:36:41;11.37;;;8.83;;
5452;SDS011;2749;53.576;9.822;2023-05-07T02:39:07;9.50;;;8.60;;
5452;SDS011;2749;53.576;9.822;2023-05-07T02:41:33;9.00;;;7.93;;
5452;SDS011;2749;53.576;9.822;2023-05-07T02:43:59;9.00;;;7.70;;
5452;SDS011;2749;53.576;9.822;2023-05-07T02:46:25;11.33;;;8.13;;
5452;SDS011;2749;53.576;9.822;2023-05-07T02:48:51;9.20;;;7.63;;
5452;SDS011;2749;53.576;9.822;2023-05-07T02:51:19;9.73;;;8.83;;
5452;SDS011;2749;53.576;9.822;2023-05-07T02:53:45;9.20;;;8.30;;
5452;SDS011;2749;53.576;9.822;2023-05-07T02:56:11;14.53;;;9.50;;
5452;SDS011;2749;53.576;9.822;2023-05-07T02:58:37;8.77;;;7.90;;
5452;SDS011;2749;53.576;9.822;2023-05-07T03:01:07;10.63;;;9.30;;
5452;SDS011;2749;53.576;9.822;2023-05-07T03:03:33;9.80;;;8.80;;
5452;SDS011;2749;53.576;9.822;2023-05-07T03:05:58;12.83;;;8.37;;
5452;SDS011;2749;53.576;9.822;2023-05-07T03:08:24;11.30;;;9.17;;
5452;SDS011;2749;53.576;9.822;2023-05-07T03:10:50;10.50;;;9.40;;
5452;SDS011;2749;53.576;9.822;2023-05-07T03:13:16;11.97;;;9.77;;
5452;SDS011;2749;53.576;9.822;2023-05-07T03:15:42;9.97;;;8.97;;
5452;SDS011;2749;53.576;9.822;2023-05-07T03:18:08;10.90;;;8.93;;
5452;SDS011;2749;53.576;9.822;2023-05-07T03:20:35;10.80;;;9.53;;
5452;SDS011;2749;53.576;9.822;2023-05-07T03:23:01;12.37;;;10.37;;
5452;SDS011;2749;53.576;9.822;2023-05-07T03:25:27;12.40;;;10.73;;
5452;SDS011;2749;53.576;9.822;2023-05-07T03:27:54;10.30;;;8.33;;
5452;SDS011;2749;53.576;9.822;2023-05-07T03:30:21;11.30;;;10.03;;
5452;SDS011;2749;53.576;9.822;2023-05-07T03:32:46;13.83;;;10.70;;
5452;SDS011;2749;53.576;9.822;2023-05-07T03:35:12;11.67;;;10.10;;
5452;SDS011;2749;53.576;9.822;2023-05-07T03:37:38;13.07;;;10.30;;
5452;SDS011;2749;53.576;9.822;2023-05-07T03:40:05;10.20;;;9.17;;
5452;SDS011;2749;53.576;9.822;2023-05-07T03:42:31;12.37;;;10.00;;
5452;SDS011;2749;53.576;9.822;2023-05-07T03:44:57;12.90;;;11.13;;
5452;SDS011;2749;53.576;9.822;2023-05-07T03:47:23;12.20;;;9.90;;
5452;SDS011;2749;53.576;9.822;2023-05-07T03:49:49;12.17;;;9.73;;
5452;SDS011;2749;53.576;9.822;2023-05-07T03:52:17;10.87;;;9.40;;
5452;SDS011;2749;53.576;9.822;2023-05-07T03:54:48;13.50;;;9.90;;
5452;SDS011;2749;53.576;9.822;2023-05-07T03:57:14;11.83;;;10.37;;
5452;SDS011;2749;53.576;9.822;2023-05-07T03:59:40;14.40;;;10.50;;
5452;SDS011;2749;53.576;9.822;2023-05-07T04:02:06;12.03;;;10.73;;
5452;SDS011;2749;53.576;9.822;2023-05-07T04:04:32;12.40;;;11.10;;
5452;SDS011;2749;53.576;9.822;2023-05-07T04:06:58;10.60;;;9.50;;
5452;SDS011;2749;53.576;9.822;2023-05-07T04:09:25;12.40;;;11.00;;
5452;SDS011;2749;53.576;9.822;2023-05-07T04:11:51;12.17;;;10.10;;
5452;SDS011;2749;53.576;9.822;2023-05-07T04:14:17;14.33;;;9.60;;
5452;SDS011;2749;53.576;9.822;2023-05-07T04:16:43;12.07;;;9.77;;
5452;SDS011;2749;53.576;9.822;2023-05-07T04:19:09;15.10;;;11.00;;
5452;SDS011;2749;53.576;9.822;2023-05-07T04:21:35;13.20;;;10.70;;
5452;SDS011;2749;53.576;9.822;2023-05-07T04:24:02;12.40;;;11.03;;
5452;SDS011;2749;53.576;9.822;2023-05-07T04:26:28;14.13;;;11.07;;
5452;SDS011;2749;53.576;9.822;2023-05-07T04:28:54;11.60;;;9.77;;
5452;SDS011;2749;53.576;9.822;2023-05-07T04:31:20;11.40;;;10.30;;
5452;SDS011;2749;53.576;9.822;2023-05-07T04:33:46;10.63;;;9.60;;
5452;SDS011;2749;53.576;9.822;2023-05-07T04:36:12;11.33;;;10.13;;
5452;SDS011;2749;53.576;9.822;2023-05-07T04:38:38;13.30;;;9.47;;
5452;SDS011;2749;53.576;9.822;2023-05-07T04:41:04;13.50;;;10.73;;
5452;SDS011;2749;53.576;9.822;2023-05-07T04:43:30;11.97;;;9.70;;
5452;SDS011;2749;53.576;9.822;2023-05-07T04:45:56;10.40;;;8.80;;
5452;SDS011;2749;53.576;9.822;2023-05-07T04:48:22;13.73;;;10.37;;
5452;SDS011;2749;53.576;9.822;2023-05-07T04:50:49;11.07;;;9.80;;
5452;SDS011;2749;53.576;9.822;2023-05-07T04:53:15;11.07;;;9.90;;
5452;SDS011;2749;53.576;9.822;2023-05-07T04:55:41;11.33;;;10.20;;
5452;SDS011;2749;53.576;9.822;2023-05-07T04:58:07;10.40;;;9.03;;
5452;SDS011;2749;53.576;9.822;2023-05-07T05:00:33;16.20;;;11.40;;
5452;SDS011;2749;53.576;9.822;2023-05-07T05:02:59;10.10;;;9.10;;
5452;SDS011;2749;53.576;9.822;2023-05-07T05:05:25;14.50;;;11.43;;
5452;SDS011;2749;53.576;9.822;2023-05-07T05:07:51;12.07;;;10.73;;
5452;SDS011;2749;53.576;9.822;2023-05-07T05:10:17;10.70;;;9.53;;
5452;SDS011;2749;53.576;9.822;2023-05-07T05:12:43;12.80;;;11.23;;
5452;SDS011;2749;53.576;9.822;2023-05-07T05:15:10;12.87;;;10.00;;
5452;SDS011;2749;53.576;9.822;2023-05-07T05:17:36;11.70;;;10.30;;
5452;SDS011;2749;53.576;9.822;2023-05-07T05:20:02;9.10;;;8.20;;
5452;SDS011;2749;53.576;9.822;2023-05-07T05:22:28;9.70;;;8.77;;
5452;SDS011;2749;53.576;9.822;2023-05-07T05:24:56;11.37;;;10.17;;
5452;SDS011;2749;53.576;9.822;2023-05-07T05:27:21;11.60;;;10.50;;
5452;SDS011;2749;53.576;9.822;2023-05-07T05:29:47;10.97;;;9.47;;
5452;SDS011;2749;53.576;9.822;2023-05-07T05:32:13;16.60;;;10.90;;
5452;SDS011;2749;53.576;9.822;2023-05-07T05:34:39;10.27;;;8.90;;
5452;SDS011;2749;53.576;9.822;2023-05-07T05:37:05;9.67;;;8.67;;
5452;SDS011;2749;53.576;9.822;2023-05-07T05:39:31;10.63;;;9.20;;
5452;SDS011;2749;53.576;9.822;2023-05-07T05:41:57;10.93;;;9.30;;
5452;SDS011;2749;53.576;9.822;2023-05-07T05:44:23;11.97;;;9.90;;
5452;SDS011;2749;53.576;9.822;2023-05-07T05:46:50;10.97;;;9.20;;
5452;SDS011;2749;53.576;9.822;2023-05-07T05:49:16;7.93;;;7.20;;
5452;SDS011;2749;53.576;9.822;2023-05-07T05:51:42;9.73;;;8.60;;
5452;SDS011;2749;53.576;9.822;2023-05-07T05:54:08;9.00;;;7.60;;
5452;SDS011;2749;53.576;9.822;2023-05-07T05:56:34;10.23;;;8.20;;
5452;SDS011;2749;53.576;9.822;2023-05-07T05:59:00;9.60;;;8.60;;
5452;SDS011;2749;53.576;9.822;2023-05-07T06:01:26;11.50;;;9.17;;
5452;SDS011;2749;53.576;9.822;2023-05-07T06:03:52;7.90;;;7.13;;
5452;SDS011;2749;53.576;9.822;2023-05-07T06:06:18;13.60;;;9.53;;
5452;SDS011;2749;53.576;9.822;2023-05-07T06:08:44;9.87;;;8.87;;
5452;SDS011;2749;53.576;9.822;2023-05-07T06:11:10;11.37;;;9.90;;
5452;SDS011;2749;53.576;9.822;2023-05-07T06:13:36;17.50;;;10.17;;
5452;SDS011;2749;53.576;9.822;2023-05-07T06:16:02;9.47;;;7.90;;
5452;SDS011;2749;53.576;9.822;2023-05-07T06:18:28;9.90;;;8.70;;
5452;SDS011;2749;53.576;9.822;2023-05-07T06:20:54;10.17;;;8.50;;
5452;SDS011;2749;53.576;9.822;2023-05-07T06:23:20;10.83;;;9.67;;
5452;SDS011;2749;53.576;9.822;2023-05-07T06:25:49;9.20;;;8.30;;
5452;SDS011;2749;53.576;9.822;2023-05-07T06:28:15;9.60;;;8.37;;
5452;SDS011;2749;53.576;9.822;2023-05-07T06:30:41;10.60;;;9.10;;
5452;SDS011;2749;53.576;9.822;2023-05-07T06:33:07;10.57;;;9.43;;
5452;SDS011;2749;53.576;9.822;2023-05-07T06:35:33;8.47;;;7.63;;
5452;SDS011;2749;53.576;9.822;2023-05-07T06:37:59;11.60;;;9.90;;
5452;SDS011;2749;53.576;9.822;2023-05-07T06:40:25;9.73;;;8.83;;
5452;SDS011;2749;53.576;9.822;2023-05-07T06:42:51;9.50;;;8.60;;
5452;SDS011;2749;53.576;9.822;2023-05-07T06:45:17;8.80;;;8.00;;
5452;SDS011;2749;53.576;9.822;2023-05-07T06:47:43;8.20;;;7.30;;
5452;SDS011;2749;53.576;9.822;2023-05-07T06:50:09;10.40;;;8.77;;
5452;SDS011;2749;53.576;9.822;2023-05-07T06:52:35;9.10;;;7.93;;
5452;SDS011;2749;53.576;9.822;2023-05-07T06:55:01;9.67;;;8.77;;
5452;SDS011;2749;53.576;9.822;2023-05-07T06:57:27;9.50;;;8.50;;
5452;SDS011;2749;53.576;9.822;2023-05-07T06:59:53;9.10;;;8.20;;
5452;SDS011;2749;53.576;9.822;2023-05-07T07:02:19;8.77;;;7.87;;
5452;SDS011;2749;53.576;9.822;2023-05-07T07:04:45;8.10;;;7.33;;
5452;SDS011;2749;53.576;9.822;2023-05-07T07:07:11;8.20;;;7.40;;
5452;SDS011;2749;53.576;9.822;2023-05-07T07:09:37;8.97;;;8.03;;
5452;SDS011;2749;53.576;9.822;2023-05-07T07:12:03;9.50;;;7.53;;
5452;SDS011;2749;53.576;9.822;2023-05-07T07:14:29;8.00;;;7.20;;
5452;SDS011;2749;53.576;9.822;2023-05-07T07:16:55;9.97;;;8.57;;
5452;SDS011;2749;53.576;9.822;2023-05-07T07:19:21;9.57;;;8.63;;
5452;SDS011;2749;53.576;9.822;2023-05-07T07:21:46;10.20;;;9.20;;
5452;SDS011;2749;53.576;9.822;2023-05-07T07:24:13;9.30;;;8.00;;
5452;SDS011;2749;53.576;9.822;2023-05-07T07:26:43;10.67;;;8.47;;
5452;SDS011;2749;53.576;9.822;2023-05-07T07:29:09;7.77;;;6.97;;
5452;SDS011;2749;53.576;9.822;2023-05-07T07:31:35;10.83;;;8.30;;
5452;SDS011;2749;53.576;9.822;2023-05-07T07:34:01;9.10;;;8.03;;
5452;SDS011;2749;53.576;9.822;2023-05-07T07:36:27;8.37;;;7.57;;
5452;SDS011;2749;53.576;9.822;2023-05-07T07:38:53;9.50;;;8.37;;
5452;SDS011;2749;53.576;9.822;2023-05-07T07:41:19;7.13;;;6.27;;
5452;SDS011;2749;53.576;9.822;2023-05-07T07:43:46;10.30;;;7.23;;
5452;SDS011;2749;53.576;9.822;2023-05-07T07:46:12;8.53;;;7.27;;
5452;SDS011;2749;53.576;9.822;2023-05-07T07:48:38;8.10;;;7.30;;
5452;SDS011;2749;53.576;9.822;2023-05-07T07:51:04;6.07;;;5.57;;
5452;SDS011;2749;53.576;9.822;2023-05-07T07:53:30;7.70;;;6.30;;
5452;SDS011;2749;53.576;9.822;2023-05-07T07:55:56;9.20;;;7.40;;
5452;SDS011;2749;53.576;9.822;2023-05-07T07:58:22;8.73;;;7.37;;
5452;SDS011;2749;53.576;9.822;2023-05-07T08:00:49;7.60;;;6.87;;
5452;SDS011;2749;53.576;9.822;2023-05-07T08:03:16;9.20;;;7.57;;
5452;SDS011;2749;53.576;9.822;2023-05-07T08:05:42;8.27;;;6.60;;
5452;SDS011;2749;53.576;9.822;2023-05-07T08:08:08;7.83;;;6.80;;
5452;SDS011;2749;53.576;9.822;2023-05-07T08:10:34;8.70;;;7.90;;
5452;SDS011;2749;53.576;9.822;2023-05-07T08:13:03;8.73;;;7.40;;
5452;SDS011;2749;53.576;9.822;2023-05-07T08:15:29;8.90;;;7.90;;
5452;SDS011;2749;53.576;9.822;2023-05-07T08:17:55;7.73;;;7.03;;
5452;SDS011;2749;53.576;9.822;2023-05-07T08:20:25;7.67;;;7.03;;
5452;SDS011;2749;53.576;9.822;2023-05-07T08:22:51;7.10;;;6.47;;
5452;SDS011;2749;53.576;9.822;2023-05-07T08:25:17;8.23;;;7.13;;
5452;SDS011;2749;53.576;9.822;2023-05-07T08:27:43;7.10;;;6.40;;
5452;SDS011;2749;53.576;9.822;2023-05-07T08:30:10;8.13;;;6.73;;
5452;SDS011;2749;53.576;9.822;2023-05-07T08:32:36;6.77;;;6.07;;
5452;SDS011;2749;53.576;9.822;2023-05-07T08:35:02;6.73;;;6.13;;
5452;SDS011;2749;53.576;9.822;2023-05-07T08:37:28;7.90;;;7.10;;
5452;SDS011;2749;53.576;9.822;2023-05-07T08:39:54;6.63;;;6.03;;
5452;SDS011;2749;53.576;9.822;2023-05-07T08:42:20;6.93;;;6.20;;
5452;SDS011;2749;53.576;9.822;2023-05-07T08:44:46;8.07;;;6.37;;
5452;SDS011;2749;53.576;9.822;2023-05-07T08:47:13;6.67;;;6.07;;
5452;SDS011;2749;53.576;9.822;2023-05-07T08:49:39;5.93;;;5.33;;
5452;SDS011;2749;53.576;9.822;2023-05-07T08:52:06;6.93;;;6.23;;
5452;SDS011;2749;53.576;9.822;2023-05-07T08:54:32;6.77;;;6.17;;
5452;SDS011;2749;53.576;9.822;2023-05-07T08:56:58;5.90;;;5.50;;
5452;SDS011;2749;53.576;9.822;2023-05-07T08:59:24;7.20;;;6.50;;
5452;SDS011;2749;53.576;9.822;2023-05-07T09:01:50;6.70;;;6.00;;
5452;SDS011;2749;53.576;9.822;2023-05-07T09:04:16;7.43;;;6.37;;
5452;SDS011;2749;53.576;9.822;2023-05-07T09:06:42;6.63;;;6.13;;
5452;SDS011;2749;53.576;9.822;2023-05-07T09:09:08;6.73;;;6.13;;
5452;SDS011;2749;53.576;9.822;2023-05-07T09:11:34;9.73;;;6.93;;
5452;SDS011;2749;53.576;9.822;2023-05-07T09:14:00;7.77;;;6.97;;
5452;SDS011;2749;53.576;9.822;2023-05-07T09:16:28;7.80;;;6.50;;
5452;SDS011;2749;53.576;9.822;2023-05-07T09:18:55;7.00;;;6.30;;
5452;SDS011;2749;53.576;9.822;2023-05-07T09:21:21;7.93;;;6.97;;
5452;SDS011;2749;53.576;9.822;2023-05-07T09:23:48;7.67;;;6.90;;
5452;SDS011;2749;53.576;9.822;2023-05-07T09:26:14;7.27;;;6.67;;
5452;SDS011;2749;53.576;9.822;2023-05-07T09:28:40;6.77;;;6.17;;
5452;SDS011;2749;53.576;9.822;2023-05-07T09:31:07;7.57;;;6.87;;
5452;SDS011;2749;53.576;9.822;2023-05-07T09:33:33;7.37;;;6.60;;
5452;SDS011;2749;53.576;9.822;2023-05-07T09:36:06;8.00;;;7.30;;
5452;SDS011;2749;53.576;9.822;2023-05-07T09:38:33;6.93;;;6.40;;
5452;SDS011;2749;53.576;9.822;2023-05-07T09:41:09;6.83;;;6.10;;
5452;SDS011;2749;53.576;9.822;2023-05-07T09:43:36;8.77;;;7.37;;
5452;SDS011;2749;53.576;9.822;2023-05-07T09:46:03;6.53;;;5.93;;
5452;SDS011;2749;53.576;9.822;2023-05-07T09:48:30;7.90;;;7.10;;
5452;SDS011;2749;53.576;9.822;2023-05-07T09:50:57;10.17;;;7.50;;
5452;SDS011;2749;53.576;9.822;2023-05-07T09:53:27;7.90;;;6.80;;
5452;SDS011;2749;53.576;9.822;2023-05-07T09:55:55;8.10;;;6.77;;
5452;SDS011;2749;53.576;9.822;2023-05-07T09:58:21;6.23;;;5.70;;
5452;SDS011;2749;53.576;9.822;2023-05-07T10:00:48;6.90;;;6.00;;
5452;SDS011;2749;53.576;9.822;2023-05-07T10:03:15;7.27;;;6.57;;
5452;SDS011;2749;53.576;9.822;2023-05-07T10:05:41;6.90;;;6.30;;
5452;SDS011;2749;53.576;9.822;2023-05-07T10:08:09;6.93;;;6.20;;
5452;SDS011;2749;53.576;9.822;2023-05-07T10:10:35;7.27;;;6.00;;
5452;SDS011;2749;53.576;9.822;2023-05-07T10:13:01;8.77;;;6.90;;
5452;SDS011;2749;53.576;9.822;2023-05-07T10:15:30;7.23;;;6.40;;
5452;SDS011;2749;53.576;9.822;2023-05-07T10:17:57;6.77;;;6.13;;
5452;SDS011;2749;53.576;9.822;2023-05-07T10:20:23;9.23;;;6.97;;
5452;SDS011;2749;53.576;9.822;2023-05-07T10:22:49;6.70;;;6.10;;
5452;SDS011;2749;53.576;9.822;2023-05-07T10:25:18;7.13;;;6.53;;
5452;SDS011;2749;53.576;9.822;2023-05-07T10:27:44;6.90;;;6.30;;
5452;SDS011;2749;53.576;9.822;2023-05-07T10:32:48;6.10;;;5.60;;
5452;SDS011;2749;53.576;9.822;2023-05-07T10:35:21;6.43;;;5.80;;
5452;SDS011;2749;53.576;9.822;2023-05-07T10:37:48;6.43;;;5.83;;
5452;SDS011;2749;53.576;9.822;2023-05-07T10:40:14;8.17;;;7.37;;
5452;SDS011;2749;53.576;9.822;2023-05-07T10:42:58;7.27;;;6.57;;
5452;SDS011;2749;53.576;9.822;2023-05-07T10:45:25;6.80;;;6.20;;
5452;SDS011;2749;53.576;9.822;2023-05-07T10:48:07;6.70;;;5.87;;
5452;SDS011;2749;53.576;9.822;2023-05-07T10:50:33;7.37;;;6.60;;
5452;SDS011;2749;53.576;9.822;2023-05-07T10:55:44;6.60;;;6.00;;
5452;SDS011;2749;53.576;9.822;2023-05-07T10:58:23;7.37;;;6.70;;
5452;SDS011;2749;53.576;9.822;2023-05-07T11:00:50;5.70;;;5.20;;
5452;SDS011;2749;53.576;9.822;2023-05-07T11:03:17;5.60;;;5.10;;
5452;SDS011;2749;53.576;9.822;2023-05-07T11:05:43;6.80;;;6.03;;
5452;SDS011;2749;53.576;9.822;2023-05-07T11:08:09;5.50;;;5.10;;
5452;SDS011;2749;53.576;9.822;2023-05-07T11:10:54;5.97;;;5.47;;
5452;SDS011;2749;53.576;9.822;2023-05-07T11:16:15;6.20;;;5.70;;
5452;SDS011;2749;53.576;9.822;2023-05-07T11:18:48;5.80;;;5.30;;
5452;SDS011;2749;53.576;9.822;2023-05-07T11:21:57;5.90;;;5.40;;
5452;SDS011;2749;53.576;9.822;2023-05-07T11:24:05;6.47;;;5.47;;
5452;SDS011;2749;53.576;9.822;2023-05-07T11:26:40;7.13;;;6.43;;
5452;SDS011;2749;53.576;9.822;2023-05-07T11:29:10;6.00;;;5.50;;
5452;SDS011;2749;53.576;9.822;2023-05-07T11:31:36;5.73;;;5.23;;
5452;SDS011;2749;53.576;9.822;2023-05-07T11:34:02;6.50;;;5.43;;
5452;SDS011;2749;53.576;9.822;2023-05-07T11:36:30;6.10;;;5.50;;
5452;SDS011;2749;53.576;9.822;2023-05-07T11:38:57;5.60;;;5.10;;
5452;SDS011;2749;53.576;9.822;2023-05-07T11:41:23;6.50;;;5.93;;
5452;SDS011;2749;53.576;9.822;2023-05-07T11:43:59;8.20;;;5.43;;
5452;SDS011;2749;53.576;9.822;2023-05-07T11:46:26;6.37;;;5.60;;
5452;SDS011;2749;53.576;9.822;2023-05-07T11:48:52;6.40;;;5.50;;
5452;SDS011;2749;53.576;9.822;2023-05-07T11:51:18;5.80;;;5.30;;
5452;SDS011;2749;53.576;9.822;2023-05-07T11:53:45;5.57;;;5.07;;
5452;SDS011;2749;53.576;9.822;2023-05-07T11:56:14;5.83;;;5.40;;
5452;SDS011;2749;53.576;9.822;2023-05-07T11:58:41;6.30;;;5.70;;
5452;SDS011;2749;53.576;9.822;2023-05-07T12:01:07;6.33;;;5.83;;
5452;SDS011;2749;53.576;9.822;2023-05-07T12:03:34;7.70;;;7.10;;
5452;SDS011;2749;53.576;9.822;2023-05-07T12:06:01;6.50;;;6.00;;
5452;SDS011;2749;53.576;9.822;2023-05-07T12:08:27;6.73;;;5.23;;
5452;SDS011;2749;53.576;9.822;2023-05-07T12:10:53;5.40;;;5.00;;
5452;SDS011;2749;53.576;9.822;2023-05-07T12:13:20;5.57;;;4.90;;
5452;SDS011;2749;53.576;9.822;2023-05-07T12:15:46;5.90;;;5.40;;
5452;SDS011;2749;53.576;9.822;2023-05-07T12:18:15;5.80;;;5.20;;
5452;SDS011;2749;53.576;9.822;2023-05-07T12:20:41;4.70;;;4.27;;
5452;SDS011;2749;53.576;9.822;2023-05-07T12:23:08;5.73;;;5.23;;
5452;SDS011;2749;53.576;9.822;2023-05-07T12:25:34;5.50;;;5.00;;
5452;SDS011;2749;53.576;9.822;2023-05-07T12:28:01;5.00;;;4.60;;
5452;SDS011;2749;53.576;9.822;2023-05-07T12:30:28;5.27;;;4.87;;
5452;SDS011;2749;53.576;9.822;2023-05-07T12:32:54;4.17;;;3.87;;
5452;SDS011;2749;53.576;9.822;2023-05-07T12:35:27;4.60;;;4.20;;
5452;SDS011;2749;53.576;9.822;2023-05-07T12:37:56;5.10;;;4.60;;
5452;SDS011;2749;53.576;9.822;2023-05-07T12:40:24;5.23;;;4.80;;
5452;SDS011;2749;53.576;9.822;2023-05-07T12:42:52;4.47;;;4.17;;
5452;SDS011;2749;53.576;9.822;2023-05-07T12:45:21;4.70;;;4.30;;
5452;SDS011;2749;53.576;9.822;2023-05-07T12:47:47;3.90;;;3.60;;
5452;SDS011;2749;53.576;9.822;2023-05-07T12:50:13;5.03;;;4.63;;
5452;SDS011;2749;53.576;9.822;2023-05-07T12:52:40;4.13;;;3.73;;
5452;SDS011;2749;53.576;9.822;2023-05-07T12:55:06;5.20;;;4.70;;
5452;SDS011;2749;53.576;9.822;2023-05-07T12:57:39;4.70;;;4.33;;
5452;SDS011;2749;53.576;9.822;2023-05-07T13:00:05;3.80;;;3.50;;
5452;SDS011;2749;53.576;9.822;2023-05-07T13:02:32;4.13;;;3.83;;
5452;SDS011;2749;53.576;9.822;2023-05-07T13:04:59;4.97;;;4.47;;
5452;SDS011;2749;53.576;9.822;2023-05-07T13:07:25;4.50;;;4.20;;
5452;SDS011;2749;53.576;9.822;2023-05-07T13:09:51;5.30;;;4.30;;
5452;SDS011;2749;53.576;9.822;2023-05-07T13:12:17;4.20;;;3.80;;
5452;SDS011;2749;53.576;9.822;2023-05-07T13:14:43;6.47;;;3.60;;
5452;SDS011;2749;53.576;9.822;2023-05-07T13:17:08;4.63;;;4.23;;
5452;SDS011;2749;53.576;9.822;2023-05-07T13:19:34;3.70;;;3.40;;
5452;SDS011;2749;53.576;9.822;2023-05-07T13:22:02;3.90;;;3.50;;
5452;SDS011;2749;53.576;9.822;2023-05-07T13:24:28;4.90;;;3.53;;
5452;SDS011;2749;53.576;9.822;2023-05-07T13:26:54;3.40;;;3.10;;
5452;SDS011;2749;53.576;9.822;2023-05-07T13:29:20;3.73;;;3.43;;
5452;SDS011;2749;53.576;9.822;2023-05-07T13:31:53;4.27;;;3.60;;
5452;SDS011;2749;53.576;9.822;2023-05-07T13:34:19;3.03;;;2.83;;
5452;SDS011;2749;53.576;9.822;2023-05-07T13:36:45;4.50;;;4.10;;
5452;SDS011;2749;53.576;9.822;2023-05-07T13:39:11;3.27;;;2.97;;
5452;SDS011;2749;53.576;9.822;2023-05-07T13:41:37;3.30;;;3.00;;
5452;SDS011;2749;53.576;9.822;2023-05-07T13:44:03;4.33;;;3.03;;
5452;SDS011;2749;53.576;9.822;2023-05-07T13:46:29;3.13;;;2.93;;
5452;SDS011;2749;53.576;9.822;2023-05-07T13:48:55;3.77;;;3.47;;
5452;SDS011;2749;53.576;9.822;2023-05-07T13:51:21;3.70;;;3.03;;
5452;SDS011;2749;53.576;9.822;2023-05-07T13:53:47;7.43;;;3.73;;
5452;SDS011;2749;53.576;9.822;2023-05-07T13:56:13;3.37;;;3.07;;
5452;SDS011;2749;53.576;9.822;2023-05-07T13:58:39;3.07;;;2.80;;
5452;SDS011;2749;53.576;9.822;2023-05-07T14:01:06;3.00;;;2.80;;
5452;SDS011;2749;53.576;9.822;2023-05-07T14:03:32;2.80;;;2.47;;
5452;SDS011;2749;53.576;9.822;2023-05-07T14:05:58;2.73;;;2.53;;
5452;SDS011;2749;53.576;9.822;2023-05-07T14:08:26;3.70;;;3.40;;
5452;SDS011;2749;53.576;9.822;2023-05-07T14:10:52;3.13;;;2.90;;
5452;SDS011;2749;53.576;9.822;2023-05-07T14:13:18;3.30;;;2.70;;
5452;SDS011;2749;53.576;9.822;2023-05-07T14:15:44;3.20;;;3.00;;
5452;SDS011;2749;53.576;9.822;2023-05-07T14:18:11;4.13;;;2.83;;
5452;SDS011;2749;53.576;9.822;2023-05-07T14:20:37;4.30;;;3.17;;
5452;SDS011;2749;53.576;9.822;2023-05-07T14:23:03;2.80;;;2.60;;
5452;SDS011;2749;53.576;9.822;2023-05-07T14:25:30;2.57;;;2.37;;
5452;SDS011;2749;53.576;9.822;2023-05-07T14:27:55;3.23;;;3.03;;
5452;SDS011;2749;53.576;9.822;2023-05-07T14:30:21;8.37;;;2.80;;
5452;SDS011;2749;53.576;9.822;2023-05-07T14:32:49;3.93;;;3.20;;
5452;SDS011;2749;53.576;9.822;2023-05-07T14:35:15;3.10;;;2.80;;
5452;SDS011;2749;53.576;9.822;2023-05-07T14:37:41;3.13;;;2.40;;
5452;SDS011;2749;53.576;9.822;2023-05-07T14:40:07;2.53;;;2.33;;
5452;SDS011;2749;53.576;9.822;2023-05-07T14:42:33;2.63;;;2.43;;
5452;SDS011;2749;53.576;9.822;2023-05-07T14:44:59;3.27;;;2.63;;
5452;SDS011;2749;53.576;9.822;2023-05-07T14:47:25;3.97;;;2.13;;
5452;SDS011;2749;53.576;9.822;2023-05-07T14:49:51;2.60;;;2.40;;
5452;SDS011;2749;53.576;9.822;2023-05-07T14:52:18;3.77;;;2.37;;
5452;SDS011;2749;53.576;9.822;2023-05-07T14:54:44;3.73;;;2.50;;
5452;SDS011;2749;53.576;9.822;2023-05-07T14:57:10;3.77;;;2.50;;
5452;SDS011;2749;53.576;9.822;2023-05-07T14:59:41;2.60;;;2.40;;
5452;SDS011;2749;53.576;9.822;2023-05-07T15:02:07;3.53;;;2.60;;
5452;SDS011;2749;53.576;9.822;2023-05-07T15:04:33;2.60;;;2.40;;
5452;SDS011;2749;53.576;9.822;2023-05-07T15:06:59;2.47;;;2.27;;
5452;SDS011;2749;53.576;9.822;2023-05-07T15:09:25;3.07;;;2.77;;
5452;SDS011;2749;53.576;9.822;2023-05-07T15:11:51;2.93;;;2.37;;